createdAt,value
2018-05-07T00:01:53.484Z,32.67
2018-05-07T00:07:55.061Z,62.03
2018-05-07T00:13:56.606Z,52.10
2018-05-07T00:19:58.127Z,44.90
2018-05-07T00:25:59.660Z,45.53
2018-05-07T00:32:01.197Z,44.47
2018-05-07T00:38:10.345Z,49.93
2018-05-07T00:44:11.891Z,48.53
2018-05-07T00:50:14.191Z,49.97
2018-05-07T00:56:15.719Z,51.70
2018-05-07T01:02:18.014Z,52.47
2018-05-07T01:08:19.518Z,52.43
2018-05-07T01:14:21.034Z,53.63
2018-05-07T01:20:22.541Z,54.00
2018-05-07T01:26:24.078Z,54.43
2018-05-07T01:32:25.602Z,58.77
2018-05-07T01:38:27.124Z,56.30
2018-05-07T01:44:28.650Z,57.17
2018-05-07T01:50:30.149Z,56.23
2018-05-07T01:56:31.657Z,56.57
2018-05-07T02:02:33.206Z,57.97
2018-05-07T02:08:34.743Z,59.10
2018-05-07T02:14:36.248Z,60.57
2018-05-07T02:20:37.844Z,60.27
2018-05-07T02:26:39.542Z,60.57
2018-05-07T02:32:41.558Z,65.60
2018-05-07T02:38:43.294Z,60.80
2018-05-07T02:44:44.813Z,61.57
2018-05-07T02:50:58.296Z,60.37
2018-05-07T02:56:59.873Z,61.80
2018-05-07T03:03:01.393Z,59.00
2018-05-07T03:09:02.980Z,57.80
2018-05-07T03:15:04.498Z,59.80
2018-05-07T03:21:06.043Z,60.27
2018-05-07T03:27:08.424Z,56.93
2018-05-07T03:33:10.215Z,53.53
2018-05-07T03:39:11.762Z,56.23
2018-05-07T03:45:13.380Z,57.63
2018-05-07T03:51:14.957Z,54.53
2018-05-07T03:57:16.519Z,55.97
2018-05-07T04:03:18.828Z,55.23
2018-05-07T04:09:21.126Z,54.20
2018-05-07T04:15:22.680Z,53.30
2018-05-07T04:21:24.284Z,54.40
2018-05-07T04:27:26.607Z,58.83
2018-05-07T04:33:28.151Z,55.67
2018-05-07T04:39:29.707Z,55.47
2018-05-07T04:45:31.312Z,58.40
2018-05-07T04:51:33.687Z,57.90
2018-05-07T04:57:35.258Z,57.00
2018-05-07T05:03:37.458Z,59.20
2018-05-07T05:09:39.796Z,57.80
2018-05-07T05:15:41.401Z,59.10
2018-05-07T05:21:43.031Z,59.60
2018-05-07T05:27:44.652Z,58.37
2018-05-07T05:33:46.252Z,59.20
2018-05-07T05:39:47.847Z,59.47
2018-05-07T05:45:49.403Z,60.20
2018-05-07T05:51:51.119Z,52.13
2018-05-07T05:57:52.689Z,45.97
2018-05-07T06:03:54.276Z,41.67
2018-05-07T06:09:55.825Z,33.47
2018-05-07T06:15:57.400Z,46.33
2018-05-07T06:21:58.964Z,123.93
2018-05-07T06:28:01.261Z,87.60
2018-05-07T06:34:02.839Z,45.40
2018-05-07T06:40:04.378Z,33.40
2018-05-07T06:46:06.724Z,22.03
2018-05-07T06:52:08.390Z,17.70
2018-05-07T06:58:09.979Z,38.73
2018-05-07T07:04:11.628Z,92.63
2018-05-07T07:10:13.383Z,63.37
2018-05-07T07:16:14.977Z,43.80
2018-05-07T07:22:16.629Z,74.47
2018-05-07T07:28:18.929Z,126.53
2018-05-07T07:34:20.441Z,108.10
2018-05-07T07:40:22.021Z,71.03
2018-05-07T07:46:23.604Z,108.13
2018-05-07T07:52:25.963Z,137.47
2018-05-07T07:58:27.557Z,177.17
2018-05-07T08:04:29.171Z,159.60
2018-05-07T08:10:30.744Z,151.37
2018-05-07T08:16:33.070Z,138.83
2018-05-07T08:22:35.472Z,129.33
2018-05-07T08:28:37.130Z,138.70
2018-05-07T08:34:38.808Z,134.63
2018-05-07T08:40:48.236Z,141.60
2018-05-07T08:46:49.851Z,123.97
2018-05-07T08:52:51.575Z,119.23
2018-05-07T08:58:53.831Z,117.67
2018-05-07T09:04:55.515Z,107.30
2018-05-07T09:10:57.056Z,102.00
2018-05-07T09:16:59.449Z,97.20
2018-05-07T09:23:01.103Z,94.67
2018-05-07T09:29:02.781Z,85.20
2018-05-07T09:35:05.271Z,84.40
2018-05-07T09:41:07.022Z,94.47
2018-05-07T09:47:09.853Z,153.90
2018-05-07T09:53:11.672Z,162.27
2018-05-07T09:59:14.261Z,117.53
2018-05-07T10:05:16.680Z,81.70
2018-05-07T10:11:18.317Z,60.77
2018-05-07T10:17:19.980Z,113.63
2018-05-07T10:23:21.658Z,89.70
2018-05-07T10:29:24.267Z,56.07
2018-05-07T10:35:25.951Z,44.30
2018-05-07T10:41:27.787Z,35.53
2018-05-07T10:47:29.480Z,25.00
2018-05-07T10:53:31.129Z,21.87
2018-05-07T10:59:33.604Z,18.13
2018-05-07T11:05:35.276Z,14.30
2018-05-07T11:11:37.035Z,10.77
2018-05-07T11:17:38.884Z,8.63
2018-05-07T11:23:41.734Z,7.77
2018-05-07T11:29:44.046Z,6.80
2018-05-07T11:35:46.078Z,6.53
2018-05-07T11:41:47.960Z,23.43
2018-05-07T11:47:50.574Z,17.70
2018-05-07T11:53:52.555Z,13.97
2018-05-07T11:59:54.261Z,14.30
2018-05-07T12:05:56.122Z,10.43
2018-05-07T12:11:58.036Z,8.30
2018-05-07T12:17:59.719Z,5.80
2018-05-07T12:24:01.455Z,4.30
2018-05-07T12:30:03.227Z,29.93
2018-05-07T12:36:05.179Z,39.50
2018-05-07T12:42:07.821Z,39.57
2018-05-07T12:48:10.540Z,37.80
2018-05-07T12:54:12.499Z,37.63
2018-05-07T13:00:14.475Z,33.80
2018-05-07T13:06:16.150Z,34.00
2018-05-07T13:12:17.832Z,31.90
2018-05-07T13:18:19.540Z,32.23
2018-05-07T13:24:21.220Z,30.03
2018-05-07T13:30:23.607Z,27.97
2018-05-07T13:36:25.345Z,28.63
2018-05-07T13:42:26.986Z,26.93
2018-05-07T13:48:28.733Z,25.23
2018-05-07T13:54:30.472Z,25.30
2018-05-07T14:00:32.192Z,23.60
2018-05-07T14:06:34.617Z,23.37
2018-05-07T14:12:37.136Z,22.87
2018-05-07T14:18:38.830Z,22.97
2018-05-07T14:24:40.558Z,21.07
2018-05-07T14:30:43.031Z,19.97
2018-05-07T14:36:44.696Z,20.10
2018-05-07T14:42:46.413Z,20.13
2018-05-07T14:48:48.801Z,19.30
2018-05-07T14:54:50.467Z,18.63
2018-05-07T15:00:52.249Z,16.97
2018-05-07T15:06:53.940Z,18.73
2018-05-07T15:12:55.596Z,17.33
2018-05-07T15:18:57.242Z,17.20
2018-05-07T15:24:58.902Z,16.30
2018-05-07T15:31:01.408Z,15.40
2018-05-07T15:37:03.129Z,15.20
2018-05-07T15:43:05.612Z,14.03
2018-05-07T15:49:07.297Z,13.90
2018-05-07T15:55:09.133Z,14.80
2018-05-07T16:01:11.057Z,13.57
2018-05-07T16:07:12.859Z,13.20
2018-05-07T16:13:14.518Z,12.37
2018-05-07T16:19:16.927Z,12.43
2018-05-07T16:25:18.590Z,12.87
2018-05-07T16:31:20.249Z,11.90
2018-05-07T16:37:21.929Z,12.43
2018-05-07T16:43:23.591Z,12.17
2018-05-07T16:49:25.243Z,11.77
2018-05-07T16:55:26.928Z,10.97
2018-05-07T17:01:28.598Z,10.60
2018-05-07T17:07:30.236Z,11.27
2018-05-07T17:13:31.890Z,11.03
2018-05-07T17:19:33.590Z,11.67
2018-05-07T17:25:35.240Z,10.60
2018-05-07T17:31:37.556Z,10.70
2018-05-07T17:37:40.067Z,10.40
2018-05-07T17:43:42.646Z,9.57
2018-05-07T17:49:44.325Z,10.33
2018-05-07T17:55:46.715Z,9.87
2018-05-07T18:01:48.503Z,9.67
2018-05-07T18:07:50.156Z,9.50
2018-05-07T18:13:52.585Z,8.70
2018-05-07T18:19:54.968Z,8.43
2018-05-07T18:25:56.616Z,8.37
2018-05-07T18:31:59.034Z,7.70
2018-05-07T18:38:00.779Z,7.60
2018-05-07T18:44:02.368Z,7.67
2018-05-07T18:50:04.752Z,7.30
2018-05-07T18:56:06.412Z,7.17
2018-05-07T19:02:08.179Z,6.80
2018-05-07T19:08:10.004Z,6.87
2018-05-07T19:14:12.002Z,6.90
2018-05-07T19:20:13.720Z,6.30
2018-05-07T19:26:15.392Z,6.47
2018-05-07T19:32:17.056Z,15.37
2018-05-07T19:38:19.468Z,108.83
2018-05-07T19:44:21.154Z,129.60
2018-05-07T19:50:22.829Z,115.93
2018-05-07T19:56:24.502Z,118.33
2018-05-07T20:02:26.201Z,120.27
2018-05-07T20:08:27.855Z,117.67
2018-05-07T20:14:29.499Z,107.67
2018-05-07T20:20:31.161Z,107.47
2018-05-07T20:26:32.913Z,98.53
2018-05-07T20:32:34.587Z,97.83
2018-05-07T20:38:36.389Z,94.20
2018-05-07T20:44:38.483Z,90.57
2018-05-07T20:50:40.396Z,90.83
2018-05-07T20:56:42.218Z,82.07
2018-05-07T21:02:44.291Z,81.10
2018-05-07T21:08:45.974Z,74.87
2018-05-07T21:14:47.640Z,71.40
2018-05-07T21:20:49.288Z,65.97
2018-05-07T21:26:50.953Z,60.90
2018-05-07T21:32:52.664Z,58.77
2018-05-07T21:38:54.434Z,56.03
2018-05-07T21:44:56.095Z,52.67
2018-05-07T21:50:58.573Z,48.87
2018-05-07T21:57:00.321Z,44.30
2018-05-07T22:03:02.745Z,39.80
2018-05-07T22:09:04.592Z,38.70
2018-05-07T22:15:07.013Z,32.03
2018-05-07T22:21:08.779Z,28.30
2018-05-07T22:27:11.120Z,22.43
2018-05-07T22:33:12.797Z,18.47
2018-05-07T22:39:14.471Z,14.73
2018-05-07T22:45:16.889Z,12.97
2018-05-07T22:51:19.281Z,11.37
2018-05-07T22:57:20.934Z,9.83
2018-05-07T23:03:23.368Z,9.70
2018-05-07T23:09:25.028Z,8.13
2018-05-07T23:15:26.754Z,7.57
2018-05-07T23:21:28.429Z,7.07
2018-05-07T23:27:30.101Z,6.23
2018-05-07T23:33:31.773Z,6.03
2018-05-07T23:39:34.200Z,5.73
2018-05-07T23:45:36.351Z,5.10
2018-05-07T23:51:38.022Z,4.70
2018-05-07T23:57:39.701Z,4.73
